sensor_id;sensor_type;location;lat;lon;timestamp;pressure;altitude;pressure_sealevel;temperature;humidity
63395;BME280;49531;-34.520;150.798;2023-10-09T00:00:26;101527.16;;;22.21;41.75
63395;BME280;49531;-34.520;150.798;2023-10-09T00:02:59;101532.94;;;22.25;41.89
63395;BME280;49531;-34.520;150.798;2023-10-09T00:05:33;101523.75;;;22.31;41.57
63395;BME280;49531;-34.520;150.798;2023-10-09T00:08:13;101506.69;;;22.36;41.45
63395;BME280;49531;-34.520;150.798;2023-10-09T00:11:09;101513.53;;;22.43;41.43
63395;BME280;49531;-34.520;150.798;2023-10-09T00:13:42;101514.69;;;22.47;41.66
63395;BME280;49531;-34.520;150.798;2023-10-09T00:16:21;101517.47;;;22.52;41.99
63395;BME280;49531;-34.520;150.798;2023-10-09T00:19:02;101509.88;;;22.54;42.16
63395;BME280;49531;-34.520;150.798;2023-10-09T00:21:50;101515.13;;;22.61;42.15
63395;BME280;49531;-34.520;150.798;2023-10-09T00:24:21;101499.09;;;22.65;41.87
63395;BME280;49531;-34.520;150.798;2023-10-09T00:26:54;101497.00;;;22.72;41.73
63395;BME280;49531;-34.520;150.798;2023-10-09T00:29:40;101484.53;;;22.76;41.33
63395;BME280;49531;-34.520;150.798;2023-10-09T00:32:21;101487.88;;;22.83;41.57
63395;BME280;49531;-34.520;150.798;2023-10-09T00:34:59;101481.09;;;22.85;41.54
63395;BME280;49531;-34.520;150.798;2023-10-09T00:37:46;101472.41;;;22.88;41.49
63395;BME280;49531;-34.520;150.798;2023-10-09T00:40:13;101471.38;;;22.94;41.09
63395;BME280;49531;-34.520;150.798;2023-10-09T00:42:46;101457.25;;;22.98;40.92
63395;BME280;49531;-34.520;150.798;2023-10-09T00:45:15;101456.47;;;23.02;41.19
63395;BME280;49531;-34.520;150.798;2023-10-09T00:47:52;101455.44;;;23.08;41.04
63395;BME280;49531;-34.520;150.798;2023-10-09T00:50:22;101451.94;;;23.13;40.07
63395;BME280;49531;-34.520;150.798;2023-10-09T00:52:54;101440.50;;;23.16;39.83
63395;BME280;49531;-34.520;150.798;2023-10-09T00:55:39;101443.28;;;23.26;39.79
63395;BME280;49531;-34.520;150.798;2023-10-09T00:58:12;101444.66;;;23.28;39.31
63395;BME280;49531;-34.520;150.798;2023-10-09T01:00:43;101447.19;;;23.35;38.88
63395;BME280;49531;-34.520;150.798;2023-10-09T01:03:15;101440.94;;;23.40;38.66
63395;BME280;49531;-34.520;150.798;2023-10-09T01:05:56;101437.72;;;23.48;38.33
63395;BME280;49531;-34.520;150.798;2023-10-09T01:08:28;101439.19;;;23.55;39.20
63395;BME280;49531;-34.520;150.798;2023-10-09T01:11:00;101440.31;;;23.70;39.06
63395;BME280;49531;-34.520;150.798;2023-10-09T01:13:37;101429.41;;;23.70;38.25
63395;BME280;49531;-34.520;150.798;2023-10-09T01:16:18;101429.19;;;23.76;38.10
63395;BME280;49531;-34.520;150.798;2023-10-09T01:18:52;101419.38;;;23.80;37.12
63395;BME280;49531;-34.520;150.798;2023-10-09T01:21:21;101421.28;;;23.80;37.65
63395;BME280;49531;-34.520;150.798;2023-10-09T01:23:55;101401.97;;;23.86;37.36
63395;BME280;49531;-34.520;150.798;2023-10-09T01:26:35;101404.44;;;23.93;35.27
63395;BME280;49531;-34.520;150.798;2023-10-09T01:29:13;101393.56;;;23.98;34.38
63395;BME280;49531;-34.520;150.798;2023-10-09T01:31:41;101397.13;;;24.09;33.34
63395;BME280;49531;-34.520;150.798;2023-10-09T01:34:19;101391.13;;;24.17;32.36
63395;BME280;49531;-34.520;150.798;2023-10-09T01:36:53;101380.28;;;24.27;33.78
63395;BME280;49531;-34.520;150.798;2023-10-09T01:39:26;101380.28;;;24.32;33.44
63395;BME280;49531;-34.520;150.798;2023-10-09T01:41:55;101380.84;;;24.34;33.08
63395;BME280;49531;-34.520;150.798;2023-10-09T01:44:26;101380.28;;;24.42;32.58
63395;BME280;49531;-34.520;150.798;2023-10-09T01:46:56;101368.56;;;24.47;31.99
63395;BME280;49531;-34.520;150.798;2023-10-09T01:49:25;101357.09;;;24.50;32.41
63395;BME280;49531;-34.520;150.798;2023-10-09T01:52:01;101347.00;;;24.55;32.18
63395;BME280;49531;-34.520;150.798;2023-10-09T01:54:36;101337.16;;;24.59;32.04
63395;BME280;49531;-34.520;150.798;2023-10-09T01:57:08;101328.44;;;24.57;33.44
63395;BME280;49531;-34.520;150.798;2023-10-09T01:59:45;101342.38;;;24.76;34.61
63395;BME280;49531;-34.520;150.798;2023-10-09T02:02:16;101333.34;;;24.76;36.35
63395;BME280;49531;-34.520;150.798;2023-10-09T02:04:58;101337.44;;;24.78;37.42
63395;BME280;49531;-34.520;150.798;2023-10-09T02:07:38;101321.88;;;24.74;38.21
63395;BME280;49531;-34.520;150.798;2023-10-09T02:10:13;101314.78;;;24.78;38.28
63395;BME280;49531;-34.520;150.798;2023-10-09T02:13:16;101328.44;;;24.78;39.41
63395;BME280;49531;-34.520;150.798;2023-10-09T02:15:58;101321.56;;;24.80;39.62
63395;BME280;49531;-34.520;150.798;2023-10-09T02:18:39;101319.13;;;24.74;39.55
63395;BME280;49531;-34.520;150.798;2023-10-09T02:21:15;101334.44;;;24.70;39.66
63395;BME280;49531;-34.520;150.798;2023-10-09T02:23:42;101338.00;;;24.65;40.59
63395;BME280;49531;-34.520;150.798;2023-10-09T02:26:17;101322.16;;;24.62;40.48
63395;BME280;49531;-34.520;150.798;2023-10-09T02:29:07;101328.16;;;24.69;40.62
63395;BME280;49531;-34.520;150.798;2023-10-09T02:31:37;101319.13;;;24.64;40.68
63395;BME280;49531;-34.520;150.798;2023-10-09T02:34:13;101313.69;;;24.64;40.18
63395;BME280;49531;-34.520;150.798;2023-10-09T02:36:47;101303.03;;;24.67;41.08
63395;BME280;49531;-34.520;150.798;2023-10-09T02:39:37;101301.09;;;24.73;40.92
63395;BME280;49531;-34.520;150.798;2023-10-09T02:42:09;101304.38;;;24.75;40.80
63395;BME280;49531;-34.520;150.798;2023-10-09T02:44:39;101299.19;;;24.78;41.07
63395;BME280;49531;-34.520;150.798;2023-10-09T02:47:16;101297.78;;;24.81;40.90
63395;BME280;49531;-34.520;150.798;2023-10-09T02:50:12;101295.59;;;24.83;40.41
63395;BME280;49531;-34.520;150.798;2023-10-09T02:52:45;101289.59;;;24.86;41.05
63395;BME280;49531;-34.520;150.798;2023-10-09T02:55:13;101278.66;;;24.86;40.85
63395;BME280;49531;-34.520;150.798;2023-10-09T02:57:50;101269.91;;;24.89;41.51
63395;BME280;49531;-34.520;150.798;2023-10-09T03:00:34;101259.81;;;24.84;41.65
63395;BME280;49531;-34.520;150.798;2023-10-09T03:03:03;101269.38;;;24.87;42.51
63395;BME280;49531;-34.520;150.798;2023-10-09T03:05:33;101266.34;;;24.93;41.78
63395;BME280;49531;-34.520;150.798;2023-10-09T03:08:04;101262.28;;;24.96;40.59
63395;BME280;49531;-34.520;150.798;2023-10-09T03:10:31;101250.78;;;24.94;40.88
63395;BME280;49531;-34.520;150.798;2023-10-09T03:13:00;101273.22;;;24.96;39.93
63395;BME280;49531;-34.520;150.798;2023-10-09T03:15:29;101261.47;;;24.96;39.74
63395;BME280;49531;-34.520;150.798;2023-10-09T03:18:05;101255.16;;;24.90;39.02
63395;BME280;49531;-34.520;150.798;2023-10-09T03:20:32;101265.00;;;24.91;39.33
63395;BME280;49531;-34.520;150.798;2023-10-09T03:22:59;101238.22;;;24.93;39.02
63395;BME280;49531;-34.520;150.798;2023-10-09T03:25:28;101238.75;;;24.90;39.17
63395;BME280;49531;-34.520;150.798;2023-10-09T03:27:55;101243.13;;;24.91;39.63
63395;BME280;49531;-34.520;150.798;2023-10-09T03:30:25;101250.50;;;24.90;40.10
63395;BME280;49531;-34.520;150.798;2023-10-09T03:32:52;101256.50;;;24.92;40.44
63395;BME280;49531;-34.520;150.798;2023-10-09T03:35:23;101245.31;;;24.89;40.22
63395;BME280;49531;-34.520;150.798;2023-10-09T03:38:00;101246.13;;;24.89;39.93
63395;BME280;49531;-34.520;150.798;2023-10-09T03:40:46;101244.50;;;24.93;39.57
63395;BME280;49531;-34.520;150.798;2023-10-09T03:43:14;101243.69;;;24.88;39.82
63395;BME280;49531;-34.520;150.798;2023-10-09T03:45:42;101249.97;;;24.88;40.26
63395;BME280;49531;-34.520;150.798;2023-10-09T03:48:19;101247.78;;;24.85;40.38
63395;BME280;49531;-34.520;150.798;2023-10-09T03:50:53;101227.88;;;24.75;39.91
63395;BME280;49531;-34.520;150.798;2023-10-09T03:53:39;101242.31;;;24.85;39.81
63395;BME280;49531;-34.520;150.798;2023-10-09T03:56:07;101223.47;;;24.89;39.98
63395;BME280;49531;-34.520;150.798;2023-10-09T03:58:46;101235.50;;;24.83;39.93
63395;BME280;49531;-34.520;150.798;2023-10-09T04:01:20;101232.81;;;24.78;39.78
63395;BME280;49531;-34.520;150.798;2023-10-09T04:03:56;101238.78;;;24.80;39.60
63395;BME280;49531;-34.520;150.798;2023-10-09T04:06:28;101228.94;;;24.84;39.89
63395;BME280;49531;-34.520;150.798;2023-10-09T04:09:10;101239.84;;;24.89;39.88
63395;BME280;49531;-34.520;150.798;2023-10-09T04:11:46;101239.84;;;24.89;40.19
63395;BME280;49531;-34.520;150.798;2023-10-09T04:14:16;101237.41;;;24.82;40.16
63395;BME280;49531;-34.520;150.798;2023-10-09T04:17:02;101238.75;;;24.90;39.58
63395;BME280;49531;-34.520;150.798;2023-10-09T04:19:32;101231.13;;;24.87;40.14
63395;BME280;49531;-34.520;150.798;2023-10-09T04:22:28;101234.41;;;24.84;40.19
63395;BME280;49531;-34.520;150.798;2023-10-09T04:24:57;101236.88;;;24.80;40.08
63395;BME280;49531;-34.520;150.798;2023-10-09T04:27:24;101228.38;;;24.82;40.37
63395;BME280;49531;-34.520;150.798;2023-10-09T04:30:02;101238.78;;;24.85;40.12
63395;BME280;49531;-34.520;150.798;2023-10-09T04:32:34;101238.22;;;24.88;39.52
63395;BME280;49531;-34.520;150.798;2023-10-09T04:35:01;101230.56;;;24.80;40.22
63395;BME280;49531;-34.520;150.798;2023-10-09T04:38:00;101232.22;;;24.81;39.98
63395;BME280;49531;-34.520;150.798;2023-10-09T04:40:32;101232.25;;;24.76;40.24
63395;BME280;49531;-34.520;150.798;2023-10-09T04:43:18;101229.25;;;24.77;40.18
63395;BME280;49531;-34.520;150.798;2023-10-09T04:45:48;101227.34;;;24.78;40.06
63395;BME280;49531;-34.520;150.798;2023-10-09T04:48:36;101237.69;;;24.81;40.10
63395;BME280;49531;-34.520;150.798;2023-10-09T04:51:14;101244.53;;;24.78;40.52
63395;BME280;49531;-34.520;150.798;2023-10-09T04:53:48;101238.25;;;24.78;40.76
63395;BME280;49531;-34.520;150.798;2023-10-09T04:56:40;101233.59;;;24.83;40.97
63395;BME280;49531;-34.520;150.798;2023-10-09T04:59:19;101233.31;;;24.85;41.11
63395;BME280;49531;-34.520;150.798;2023-10-09T05:01:54;101222.44;;;24.75;41.13
63395;BME280;49531;-34.520;150.798;2023-10-09T05:04:25;101231.97;;;24.77;40.79
63395;BME280;49531;-34.520;150.798;2023-10-09T05:07:05;101228.97;;;24.79;40.56
63395;BME280;49531;-34.520;150.798;2023-10-09T05:10:01;101228.97;;;24.79;41.03
63395;BME280;49531;-34.520;150.798;2023-10-09T05:12:51;101222.38;;;24.80;40.50
63395;BME280;49531;-34.520;150.798;2023-10-09T05:15:24;101223.53;;;24.69;40.64
63395;BME280;49531;-34.520;150.798;2023-10-09T05:17:56;101231.44;;;24.70;40.57
63395;BME280;49531;-34.520;150.798;2023-10-09T05:20:24;101218.06;;;24.69;40.77
63395;BME280;49531;-34.520;150.798;2023-10-09T05:22:54;101222.44;;;24.75;40.12
63395;BME280;49531;-34.520;150.798;2023-10-09T05:25:28;101223.25;;;24.70;40.47
63395;BME280;49531;-34.520;150.798;2023-10-09T05:28:13;101222.16;;;24.61;40.78
63395;BME280;49531;-34.520;150.798;2023-10-09T05:31:12;101225.44;;;24.63;41.00
63395;BME280;49531;-34.520;150.798;2023-10-09T05:33:59;101222.72;;;24.68;40.93
63395;BME280;49531;-34.520;150.798;2023-10-09T05:36:27;101219.44;;;24.71;41.51
63395;BME280;49531;-34.520;150.798;2023-10-09T05:38:54;101215.88;;;24.71;41.50
63395;BME280;49531;-34.520;150.798;2023-10-09T05:41:39;101215.59;;;24.62;41.86
63395;BME280;49531;-34.520;150.798;2023-10-09T05:44:14;101214.78;;;24.56;41.89
63395;BME280;49531;-34.520;150.798;2023-10-09T05:46:59;101209.59;;;24.60;42.49
63395;BME280;49531;-34.520;150.798;2023-10-09T05:49:44;101208.78;;;24.59;41.54
63395;BME280;49531;-34.520;150.798;2023-10-09T05:52:34;101213.69;;;24.57;41.99
63395;BME280;49531;-34.520;150.798;2023-10-09T05:55:05;101210.72;;;24.49;42.00
63395;BME280;49531;-34.520;150.798;2023-10-09T05:57:41;101202.50;;;24.49;40.47
63395;BME280;49531;-34.520;150.798;2023-10-09T06:00:28;101206.34;;;24.48;40.76
63395;BME280;49531;-34.520;150.798;2023-10-09T06:03:13;101207.97;;;24.44;40.26
63395;BME280;49531;-34.520;150.798;2023-10-09T06:05:43;101214.25;;;24.44;40.21
63395;BME280;49531;-34.520;150.798;2023-10-09T06:08:31;101213.72;;;24.42;40.37
63395;BME280;49531;-34.520;150.798;2023-10-09T06:11:08;101212.63;;;24.43;40.46
63395;BME280;49531;-34.520;150.798;2023-10-09T06:13:58;101214.84;;;24.36;40.63
63395;BME280;49531;-34.520;150.798;2023-10-09T06:16:52;101223.03;;;24.31;40.95
63395;BME280;49531;-34.520;150.798;2023-10-09T06:19:38;101212.13;;;24.31;40.93
63395;BME280;49531;-34.520;150.798;2023-10-09T06:22:10;101214.25;;;24.24;41.07
63395;BME280;49531;-34.520;150.798;2023-10-09T06:24:56;101221.09;;;24.16;41.50
63395;BME280;49531;-34.520;150.798;2023-10-09T06:27:35;101223.03;;;24.31;41.63
63395;BME280;49531;-34.520;150.798;2023-10-09T06:30:02;101218.09;;;24.43;41.56
63395;BME280;49531;-34.520;150.798;2023-10-09T06:32:50;101221.09;;;24.57;40.91
63395;BME280;49531;-34.520;150.798;2023-10-09T06:35:24;101226.25;;;24.64;41.13
63395;BME280;49531;-34.520;150.798;2023-10-09T06:38:02;101218.63;;;24.66;40.99
63395;BME280;49531;-34.520;150.798;2023-10-09T06:40:31;101216.69;;;24.71;40.38
63395;BME280;49531;-34.520;150.798;2023-10-09T06:43:16;101206.56;;;24.77;40.62
63395;BME280;49531;-34.520;150.798;2023-10-09T06:45:47;101211.44;;;24.80;40.36
63395;BME280;49531;-34.520;150.798;2023-10-09T06:48:22;101210.63;;;24.79;40.45
63395;BME280;49531;-34.520;150.798;2023-10-09T06:51:05;101208.44;;;24.86;40.55
63395;BME280;49531;-34.520;150.798;2023-10-09T06:53:55;101212.03;;;24.72;40.40
63395;BME280;49531;-34.520;150.798;2023-10-09T06:56:26;101216.16;;;24.59;41.09
63395;BME280;49531;-34.520;150.798;2023-10-09T06:59:16;101211.50;;;24.65;40.68
63395;BME280;49531;-34.520;150.798;2023-10-09T07:01:52;101210.41;;;24.71;40.65
63395;BME280;49531;-34.520;150.798;2023-10-09T07:04:37;101215.81;;;24.81;40.63
63395;BME280;49531;-34.520;150.798;2023-10-09T07:07:04;101217.47;;;24.82;40.38
63395;BME280;49531;-34.520;150.798;2023-10-09T07:09:39;101215.53;;;24.87;40.23
63395;BME280;49531;-34.520;150.798;2023-10-09T07:12:09;101212.81;;;24.87;40.39
63395;BME280;49531;-34.520;150.798;2023-10-09T07:14:46;101216.09;;;24.84;40.29
63395;BME280;49531;-34.520;150.798;2023-10-09T07:17:14;101218.28;;;24.87;40.30
63395;BME280;49531;-34.520;150.798;2023-10-09T07:20:10;101214.97;;;24.90;40.51
63395;BME280;49531;-34.520;150.798;2023-10-09T07:22:42;101225.38;;;24.88;40.39
63395;BME280;49531;-34.520;150.798;2023-10-09T07:25:35;101232.19;;;24.91;40.32
63395;BME280;49531;-34.520;150.798;2023-10-09T07:28:16;101245.31;;;24.89;40.71
63395;BME280;49531;-34.520;150.798;2023-10-09T07:31:03;101238.78;;;24.85;40.88
63395;BME280;49531;-34.520;150.798;2023-10-09T07:33:35;101250.25;;;24.82;40.84
63395;BME280;49531;-34.520;150.798;2023-10-09T07:36:37;101251.06;;;24.82;40.80
63395;BME280;49531;-34.520;150.798;2023-10-09T07:39:05;101252.72;;;24.83;40.90
63395;BME280;49531;-34.520;150.798;2023-10-09T07:41:43;101263.91;;;24.82;40.97
63395;BME280;49531;-34.520;150.798;2023-10-09T07:44:28;101251.38;;;24.76;41.06
63395;BME280;49531;-34.520;150.798;2023-10-09T07:47:04;101251.63;;;24.79;41.02
63395;BME280;49531;-34.520;150.798;2023-10-09T07:50:00;101263.09;;;24.81;41.11
63395;BME280;49531;-34.520;150.798;2023-10-09T07:52:28;101258.47;;;24.77;41.16
63395;BME280;49531;-34.520;150.798;2023-10-09T07:54:55;101259.03;;;24.79;41.10
63395;BME280;49531;-34.520;150.798;2023-10-09T07:57:28;101259.31;;;24.77;41.20
63395;BME280;49531;-34.520;150.798;2023-10-09T08:00:05;101262.84;;;24.78;40.98
63395;BME280;49531;-34.520;150.798;2023-10-09T08:02:57;101273.25;;;24.76;41.16
63395;BME280;49531;-34.520;150.798;2023-10-09T08:05:26;101266.69;;;24.72;41.55
63395;BME280;49531;-34.520;150.798;2023-10-09T08:08:00;101265.31;;;24.69;41.64
63395;BME280;49531;-34.520;150.798;2023-10-09T08:10:50;101271.88;;;24.68;41.61
63395;BME280;49531;-34.520;150.798;2023-10-09T08:13:35;101283.91;;;24.67;41.53
63395;BME280;49531;-34.520;150.798;2023-10-09T08:16:31;101278.72;;;24.66;41.29
63395;BME280;49531;-34.520;150.798;2023-10-09T08:19:05;101269.44;;;24.62;41.65
63395;BME280;49531;-34.520;150.798;2023-10-09T08:22:07;101267.25;;;24.58;41.42
63395;BME280;49531;-34.520;150.798;2023-10-09T08:24:49;101283.09;;;24.62;41.42
63395;BME280;49531;-34.520;150.798;2023-10-09T08:27:29;101289.38;;;24.62;41.60
63395;BME280;49531;-34.520;150.798;2023-10-09T08:32:55;101294.00;;;24.62;41.74
63395;BME280;49531;-34.520;150.798;2023-10-09T08:35:47;101290.72;;;24.59;41.44
63395;BME280;49531;-34.520;150.798;2023-10-09T08:38:16;101296.19;;;24.59;41.79
63395;BME280;49531;-34.520;150.798;2023-10-09T08:40:50;101290.47;;;24.56;41.54
63395;BME280;49531;-34.520;150.798;2023-10-09T08:43:24;101297.84;;;24.55;41.60
63395;BME280;49531;-34.520;150.798;2023-10-09T08:45:56;101298.94;;;24.54;41.84
63395;BME280;49531;-34.520;150.798;2023-10-09T08:48:30;101300.28;;;24.52;41.88
63395;BME280;49531;-34.520;150.798;2023-10-09T08:50:58;101297.81;;;24.50;41.74
63395;BME280;49531;-34.520;150.798;2023-10-09T08:53:31;101303.28;;;24.50;41.98
63395;BME280;49531;-34.520;150.798;2023-10-09T08:55:59;101310.41;;;24.51;41.99
63395;BME280;49531;-34.520;150.798;2023-10-09T08:58:26;101304.09;;;24.51;42.00
63395;BME280;49531;-34.520;150.798;2023-10-09T09:00:58;101306.56;;;24.47;42.03
63395;BME280;49531;-34.520;150.798;2023-10-09T09:03:29;101318.59;;;24.46;41.97
63395;BME280;49531;-34.520;150.798;2023-10-09T09:06:05;101324.88;;;24.47;42.14
63395;BME280;49531;-34.520;150.798;2023-10-09T09:08:33;101325.13;;;24.45;41.85
63395;BME280;49531;-34.520;150.798;2023-10-09T09:11:23;101331.13;;;24.42;42.17
63395;BME280;49531;-34.520;150.798;2023-10-09T09:16:32;101341.81;;;24.39;42.13
63395;BME280;49531;-34.520;150.798;2023-10-09T09:19:04;101350.78;;;24.39;42.37
63395;BME280;49531;-34.520;150.798;2023-10-09T09:21:33;101353.00;;;24.37;42.29
63395;BME280;49531;-34.520;150.798;2023-10-09T09:24:14;101353.53;;;24.34;42.47
63395;BME280;49531;-34.520;150.798;2023-10-09T09:27:01;101378.13;;;24.34;42.41
63395;BME280;49531;-34.520;150.798;2023-10-09T09:29:47;101385.47;;;24.29;42.47
63395;BME280;49531;-34.520;150.798;2023-10-09T09:32:30;101393.41;;;24.30;42.53
63395;BME280;49531;-34.520;150.798;2023-10-09T09:35:12;101394.50;;;24.29;42.44
63395;BME280;49531;-34.520;150.798;2023-10-09T09:37:53;101379.97;;;24.23;42.26
63395;BME280;49531;-34.520;150.798;2023-10-09T09:40:21;101387.66;;;24.26;42.23
63395;BME280;49531;-34.520;150.798;2023-10-09T09:42:58;101390.66;;;24.25;42.21
63395;BME280;49531;-34.520;150.798;2023-10-09T09:45:35;101385.41;;;24.18;42.31
63395;BME280;49531;-34.520;150.798;2023-10-09T09:48:04;101391.44;;;24.20;42.06
63395;BME280;49531;-34.520;150.798;2023-10-09T09:50:39;101393.06;;;24.16;41.87
63395;BME280;49531;-34.520;150.798;2023-10-09T09:53:17;101392.78;;;24.18;42.02
63395;BME280;49531;-34.520;150.798;2023-10-09T09:55:50;101399.88;;;24.19;41.73
63395;BME280;49531;-34.520;150.798;2023-10-09T09:58:27;101397.13;;;24.14;41.97
63395;BME280;49531;-34.520;150.798;2023-10-09T10:01:03;101391.94;;;24.12;41.77
63395;BME280;49531;-34.520;150.798;2023-10-09T10:03:58;101398.75;;;24.10;41.65
63395;BME280;49531;-34.520;150.798;2023-10-09T10:06:29;101397.66;;;24.06;41.91
63395;BME280;49531;-34.520;150.798;2023-10-09T10:08:58;101401.47;;;24.05;41.80
63395;BME280;49531;-34.520;150.798;2023-10-09T10:11:48;101409.38;;;24.01;41.87
63395;BME280;49531;-34.520;150.798;2023-10-09T10:14:18;101410.75;;;23.99;42.01
63395;BME280;49531;-34.520;150.798;2023-10-09T10:17:04;101411.28;;;23.96;41.77
63395;BME280;49531;-34.520;150.798;2023-10-09T10:20:02;101409.38;;;23.96;41.76
63395;BME280;49531;-34.520;150.798;2023-10-09T10:22:48;101410.44;;;23.90;41.92
63395;BME280;49531;-34.520;150.798;2023-10-09T10:31:09;101427.88;;;23.84;41.91
63395;BME280;49531;-34.520;150.798;2023-10-09T10:36:27;101423.75;;;23.81;41.84
63395;BME280;49531;-34.520;150.798;2023-10-09T10:39:02;101409.53;;;23.74;41.94
63395;BME280;49531;-34.520;150.798;2023-10-09T10:41:55;101416.63;;;23.75;41.88
63395;BME280;49531;-34.520;150.798;2023-10-09T10:44:27;101426.19;;;23.78;41.77
63395;BME280;49531;-34.520;150.798;2023-10-09T10:47:12;101422.09;;;23.75;41.67
63395;BME280;49531;-34.520;150.798;2023-10-09T10:49:53;101424.22;;;23.68;41.78
63395;BME280;49531;-34.520;150.798;2023-10-09T10:52:37;101424.78;;;23.70;42.08
63395;BME280;49531;-34.520;150.798;2023-10-09T10:55:12;101430.75;;;23.67;41.89
63395;BME280;49531;-34.520;150.798;2023-10-09T10:58:18;101434.56;;;23.66;41.95
63395;BME280;49531;-34.520;150.798;2023-10-09T11:01:01;101420.91;;;23.61;42.11
63395;BME280;49531;-34.520;150.798;2023-10-09T11:03:38;101423.09;;;23.59;41.85
63395;BME280;49531;-34.520;150.798;2023-10-09T11:06:30;101424.72;;;23.60;41.83
63395;BME280;49531;-34.520;150.798;2023-10-09T11:09:06;101431.00;;;23.60;41.88
63395;BME280;49531;-34.520;150.798;2023-10-09T11:11:51;101437.53;;;23.54;42.04
63395;BME280;49531;-34.520;150.798;2023-10-09T11:14:47;101426.88;;;23.53;41.93
63395;BME280;49531;-34.520;150.798;2023-10-09T11:17:38;101418.06;;;23.46;42.13
63395;BME280;49531;-34.520;150.798;2023-10-09T11:20:07;101421.88;;;23.45;42.20
63395;BME280;49531;-34.520;150.798;2023-10-09T11:22:59;101431.69;;;23.41;42.23
63395;BME280;49531;-34.520;150.798;2023-10-09T11:25:45;101424.59;;;23.40;42.25
63395;BME280;49531;-34.520;150.798;2023-10-09T11:28:22;101423.19;;;23.37;42.19
63395;BME280;49531;-34.520;150.798;2023-10-09T11:31:11;101418.53;;;23.33;42.02
63395;BME280;49531;-34.520;150.798;2023-10-09T11:33:51;101422.34;;;23.32;42.24
63395;BME280;49531;-34.520;150.798;2023-10-09T11:36:21;101416.06;;;23.31;42.24
63395;BME280;49531;-34.520;150.798;2023-10-09T11:39:01;101419.63;;;23.32;42.24
63395;BME280;49531;-34.520;150.798;2023-10-09T11:41:49;101416.59;;;23.28;42.29
63395;BME280;49531;-34.520;150.798;2023-10-09T11:44:35;101412.47;;;23.25;42.33
63395;BME280;49531;-34.520;150.798;2023-10-09T11:47:06;101411.41;;;23.26;42.22
63395;BME280;49531;-34.520;150.798;2023-10-09T11:49:53;101411.34;;;23.21;42.32
63395;BME280;49531;-34.520;150.798;2023-10-09T11:52:36;101415.16;;;23.20;42.46
63395;BME280;49531;-34.520;150.798;2023-10-09T11:55:23;101411.59;;;23.15;42.50
63395;BME280;49531;-34.520;150.798;2023-10-09T11:57:55;101410.78;;;23.14;42.65
63395;BME280;49531;-34.520;150.798;2023-10-09T12:00:22;101409.72;;;23.15;42.67
63395;BME280;49531;-34.520;150.798;2023-10-09T12:03:10;101407.50;;;23.12;42.76
63395;BME280;49531;-34.520;150.798;2023-10-09T12:05:39;101407.19;;;23.09;42.64
63395;BME280;49531;-34.520;150.798;2023-10-09T12:08:11;101407.47;;;23.07;42.72
63395;BME280;49531;-34.520;150.798;2023-10-09T12:10:42;101416.66;;;23.01;42.83
63395;BME280;49531;-34.520;150.798;2023-10-09T12:13:09;101411.19;;;22.96;42.71
63395;BME280;49531;-34.520;150.798;2023-10-09T12:15:36;101418.00;;;22.99;42.74
63395;BME280;49531;-34.520;150.798;2023-10-09T12:18:09;101412.25;;;22.95;42.84
63395;BME280;49531;-34.520;150.798;2023-10-09T12:20:42;101413.34;;;22.94;42.80
63395;BME280;49531;-34.520;150.798;2023-10-09T12:23:19;101410.06;;;22.92;42.80
63395;BME280;49531;-34.520;150.798;2023-10-09T12:25:49;101413.84;;;22.91;42.90
63395;BME280;49531;-34.520;150.798;2023-10-09T12:28:16;101405.94;;;22.89;42.86
63395;BME280;49531;-34.520;150.798;2023-10-09T12:30:47;101398.84;;;22.88;42.83
63395;BME280;49531;-34.520;150.798;2023-10-09T12:33:18;101402.34;;;22.84;43.05
63395;BME280;49531;-34.520;150.798;2023-10-09T12:35:46;101384.38;;;22.83;43.10
63395;BME280;49531;-34.520;150.798;2023-10-09T12:38:14;101389.25;;;22.81;43.12
63395;BME280;49531;-34.520;150.798;2023-10-09T12:40:45;101384.06;;;22.79;43.18
63395;BME280;49531;-34.520;150.798;2023-10-09T12:43:19;101385.41;;;22.77;43.11
63395;BME280;49531;-34.520;150.798;2023-10-09T12:45:48;101385.34;;;22.72;43.19
63395;BME280;49531;-34.520;150.798;2023-10-09T12:48:15;101393.25;;;22.73;42.94
63395;BME280;49531;-34.520;150.798;2023-10-09T12:50:42;101395.94;;;22.68;43.20
63395;BME280;49531;-34.520;150.798;2023-10-09T12:53:11;101397.84;;;22.68;43.17
63395;BME280;49531;-34.520;150.798;2023-10-09T12:55:44;101394.53;;;22.66;42.98
63395;BME280;49531;-34.520;150.798;2023-10-09T12:58:11;101385.75;;;22.58;43.13
63395;BME280;49531;-34.520;150.798;2023-10-09T13:00:43;101391.47;;;22.57;43.38
63395;BME280;49531;-34.520;150.798;2023-10-09T13:03:16;101398.81;;;22.56;43.13
63395;BME280;49531;-34.520;150.798;2023-10-09T13:08:26;101394.69;;;22.54;43.32
63395;BME280;49531;-34.520;150.798;2023-10-09T13:11:09;101391.34;;;22.47;43.37
63395;BME280;49531;-34.520;150.798;2023-10-09T13:13:38;101391.41;;;22.52;43.40
63395;BME280;49531;-34.520;150.798;2023-10-09T13:16:17;101389.47;;;22.47;43.17
63395;BME280;49531;-34.520;150.798;2023-10-09T13:18:57;101395.41;;;22.44;43.35
63395;BME280;49531;-34.520;150.798;2023-10-09T13:21:32;101392.66;;;22.39;43.40
63395;BME280;49531;-34.520;150.798;2023-10-09T13:24:00;101398.91;;;22.40;43.29
63395;BME280;49531;-34.520;150.798;2023-10-09T13:26:28;101386.91;;;22.36;43.26